S/y Wilma — SFC3545 — position and weather

sailwx.info

Track history (hours):
 
Tides and Currents Weather Stations Pressure Air Temp Water Temp Dewpoint Dewpoint Depression Visibility Wind Speed Wind Dir Waves Ship Positions

S/y Wilma

Last reported at 2018-Feb-19 09:45 UTC. Time now 2018-Feb-22 20:41 UTC.
Position N 37°05' W 008°38'.

Length 10 m.

Type: Sailing vessel. MMSI: 265630800.

Date/timePositionNaut miles runAvg speedWind from/ knotsBaromVisibWave heightAir tempDewpointWater temp
2018-Feb-19 09:45N 37°05' W 008°38'  
2018-Feb-12 11:03N 37°06' W 008°38'2 0.7
2018-Feb-12 08:55N 37°07' W 008°37'0 0.1
2018-Feb-12 08:03N 37°07' W 008°37'0 2.9
2018-Feb-12 08:00N 37°07' W 008°37'2 3.7
2018-Feb-12 07:28N 37°05' W 008°37'41 2.4
2018-Feb-11 14:31N 37°43' W 008°57'1 6.0
2018-Feb-11 14:16N 37°45' W 008°57'2 5.8
2018-Feb-11 13:56N 37°47' W 008°56'2 5.4
2018-Feb-11 13:29N 37°49' W 008°55'2 4.7
2018-Feb-11 12:59N 37°51' W 008°54'2 4.6
2018-Feb-11 12:30N 37°53' W 008°53'2 4.1
2018-Feb-11 12:00N 37°55' W 008°53'2 4.1
2018-Feb-11 11:30N 37°57' W 008°52'0 0.1
2018-Feb-11 11:00N 37°57' W 008°52'0 0.0
2018-Feb-11 10:30N 37°57' W 008°52'0 0.0
2018-Feb-11 10:00N 37°57' W 008°52'0 0.0
2018-Feb-11 09:30N 37°57' W 008°52'0 0.0
2018-Feb-11 09:00N 37°57' W 008°52'0 0.0
2018-Feb-11 08:30N 37°57' W 008°52'0 0.0
2018-Feb-11 08:00N 37°57' W 008°52'0 0.0
2018-Feb-11 07:30N 37°57' W 008°52'0 0.0
2018-Feb-11 07:00N 37°57' W 008°52'0 0.0
2018-Feb-11 06:30N 37°57' W 008°52'0 0.0
2018-Feb-11 06:00N 37°57' W 008°52'0 0.0
2018-Feb-11 05:30N 37°57' W 008°52'0 0.0
2018-Feb-11 05:00N 37°57' W 008°52'0 0.0
2018-Feb-11 04:30N 37°57' W 008°52'0 0.0
2018-Feb-11 04:00N 37°57' W 008°52'0 0.0
2018-Feb-11 03:30N 37°57' W 008°52'0 0.0
2018-Feb-11 03:00N 37°57' W 008°52'0 0.0
2018-Feb-11 02:30N 37°57' W 008°52'0 0.0
2018-Feb-11 02:00N 37°57' W 008°52'0 0.0
2018-Feb-11 01:30N 37°57' W 008°52'0 0.0
2018-Feb-11 01:00N 37°57' W 008°52'0 0.0
2018-Feb-11 00:30N 37°57' W 008°52'0 0.0
2018-Feb-11 00:00N 37°57' W 008°52'0 0.0
2018-Feb-10 23:30N 37°57' W 008°52'0 0.0
2018-Feb-10 23:00N 37°57' W 008°52'0 0.0
2018-Feb-10 22:30N 37°57' W 008°52'0 0.0
2018-Feb-10 22:00N 37°57' W 008°52'0 0.0
2018-Feb-10 21:30N 37°57' W 008°52'0 0.0
2018-Feb-10 21:00N 37°57' W 008°52'0 0.0
2018-Feb-10 20:30N 37°57' W 008°52'0 0.0
2018-Feb-10 20:00N 37°57' W 008°52'0 0.0
2018-Feb-10 19:30N 37°57' W 008°52'0 0.0
2018-Feb-10 19:00N 37°57' W 008°52'0 0.0
2018-Feb-10 18:30N 37°57' W 008°52'0 0.0
2018-Feb-10 18:00N 37°57' W 008°52'0 0.0
2018-Feb-10 17:30N 37°57' W 008°52'0 0.0
2018-Feb-10 17:00N 37°57' W 008°52'0 0.0
2018-Feb-10 16:30N 37°57' W 008°52'0 0.0
2018-Feb-10 16:00N 37°57' W 008°52'0 0.0
2018-Feb-10 15:30N 37°57' W 008°52'0 0.0
2018-Feb-10 15:00N 37°57' W 008°52'0 0.0
2018-Feb-10 14:30N 37°57' W 008°52'0 0.0
2018-Feb-10 13:57N 37°57' W 008°52'0 0.0
2018-Feb-10 13:30N 37°57' W 008°52'0 0.0
2018-Feb-10 12:57N 37°57' W 008°52'0 0.0
2018-Feb-10 12:30N 37°57' W 008°52'0 0.0
2018-Feb-10 12:00N 37°57' W 008°52'0 0.0
2018-Feb-10 11:30N 37°57' W 008°52'0 0.0
2018-Feb-10 11:00N 37°57' W 008°52'0 0.0
2018-Feb-10 10:30N 37°57' W 008°52'0 0.0
2018-Feb-10 10:00N 37°57' W 008°52'0 0.0
2018-Feb-10 09:30N 37°57' W 008°52'0 0.0
2018-Feb-10 09:00N 37°57' W 008°52'0 0.0
2018-Feb-10 08:30N 37°57' W 008°52'0 0.0
2018-Feb-10 08:00N 37°57' W 008°52'0 0.0
2018-Feb-10 07:30N 37°57' W 008°52'0 0.0
2018-Feb-10 07:00N 37°57' W 008°52'0 0.0
2018-Feb-10 06:30N 37°57' W 008°52'0 0.0
2018-Feb-10 06:01N 37°57' W 008°52'0 0.0
2018-Feb-10 05:31N 37°57' W 008°52'0 0.0
2018-Feb-10 05:01N 37°57' W 008°52'0 0.0
2018-Feb-10 04:31N 37°57' W 008°52'0 0.0
2018-Feb-10 04:01N 37°57' W 008°52'0 0.0
2018-Feb-10 03:31N 37°57' W 008°52'0 0.0
2018-Feb-10 03:01N 37°57' W 008°52'0 0.0
2018-Feb-10 02:28N 37°57' W 008°52'0 0.0
2018-Feb-10 02:01N 37°57' W 008°52'0 0.0
2018-Feb-10 01:28N 37°57' W 008°52'0 0.0
2018-Feb-10 00:58N 37°57' W 008°52'0 0.0
2018-Feb-10 00:28N 37°57' W 008°52'0 0.0
2018-Feb-09 23:58N 37°57' W 008°52'0 0.0
2018-Feb-09 23:28N 37°57' W 008°52'0 0.0
2018-Feb-09 22:58N 37°57' W 008°52'0 0.0
2018-Feb-09 22:46N 37°57' W 008°52'  
Track history (hours):
 
Tides and Currents Weather Stations Pressure Air Temp Water Temp Dewpoint Dewpoint Depression Visibility Wind Speed Wind Dir Waves Ship Positions

S/y Wilma

Last reported at 2018-Feb-19 09:45 UTC. Time now 2018-Feb-22 20:41 UTC.
Position N 37°05' W 008°38'.

Length 10 m.

Type: Sailing vessel. MMSI: 265630800.

Date/timePositionNaut miles runAvg speedWind from/ knotsBaromVisibWave heightAir tempDewpointWater temp
2018-Feb-19 09:45N 37°05' W 008°38'  
2018-Feb-12 11:03N 37°06' W 008°38'2 0.7
2018-Feb-12 08:55N 37°07' W 008°37'0 0.1
2018-Feb-12 08:03N 37°07' W 008°37'0 2.9
2018-Feb-12 08:00N 37°07' W 008°37'2 3.7
2018-Feb-12 07:28N 37°05' W 008°37'41 2.4
2018-Feb-11 14:31N 37°43' W 008°57'1 6.0
2018-Feb-11 14:16N 37°45' W 008°57'2 5.8
2018-Feb-11 13:56N 37°47' W 008°56'2 5.4
2018-Feb-11 13:29N 37°49' W 008°55'2 4.7
2018-Feb-11 12:59N 37°51' W 008°54'2 4.6
2018-Feb-11 12:30N 37°53' W 008°53'2 4.1
2018-Feb-11 12:00N 37°55' W 008°53'2 4.1
2018-Feb-11 11:30N 37°57' W 008°52'0 0.1
2018-Feb-11 11:00N 37°57' W 008°52'0 0.0
2018-Feb-11 10:30N 37°57' W 008°52'0 0.0
2018-Feb-11 10:00N 37°57' W 008°52'0 0.0
2018-Feb-11 09:30N 37°57' W 008°52'0 0.0
2018-Feb-11 09:00N 37°57' W 008°52'0 0.0
2018-Feb-11 08:30N 37°57' W 008°52'0 0.0
2018-Feb-11 08:00N 37°57' W 008°52'0 0.0
2018-Feb-11 07:30N 37°57' W 008°52'0 0.0
2018-Feb-11 07:00N 37°57' W 008°52'0 0.0
2018-Feb-11 06:30N 37°57' W 008°52'0 0.0
2018-Feb-11 06:00N 37°57' W 008°52'0 0.0
2018-Feb-11 05:30N 37°57' W 008°52'0 0.0
2018-Feb-11 05:00N 37°57' W 008°52'0 0.0
2018-Feb-11 04:30N 37°57' W 008°52'0 0.0
2018-Feb-11 04:00N 37°57' W 008°52'0 0.0
2018-Feb-11 03:30N 37°57' W 008°52'0 0.0
2018-Feb-11 03:00N 37°57' W 008°52'0 0.0
2018-Feb-11 02:30N 37°57' W 008°52'0 0.0
2018-Feb-11 02:00N 37°57' W 008°52'0 0.0
2018-Feb-11 01:30N 37°57' W 008°52'0 0.0
2018-Feb-11 01:00N 37°57' W 008°52'0 0.0
2018-Feb-11 00:30N 37°57' W 008°52'0 0.0
2018-Feb-11 00:00N 37°57' W 008°52'0 0.0
2018-Feb-10 23:30N 37°57' W 008°52'0 0.0
2018-Feb-10 23:00N 37°57' W 008°52'0 0.0
2018-Feb-10 22:30N 37°57' W 008°52'0 0.0
2018-Feb-10 22:00N 37°57' W 008°52'0 0.0
2018-Feb-10 21:30N 37°57' W 008°52'0 0.0
2018-Feb-10 21:00N 37°57' W 008°52'0 0.0
2018-Feb-10 20:30N 37°57' W 008°52'0 0.0
2018-Feb-10 20:00N 37°57' W 008°52'0 0.0
2018-Feb-10 19:30N 37°57' W 008°52'0 0.0
2018-Feb-10 19:00N 37°57' W 008°52'0 0.0
2018-Feb-10 18:30N 37°57' W 008°52'0 0.0
2018-Feb-10 18:00N 37°57' W 008°52'0 0.0
2018-Feb-10 17:30N 37°57' W 008°52'0 0.0
2018-Feb-10 17:00N 37°57' W 008°52'0 0.0
2018-Feb-10 16:30N 37°57' W 008°52'0 0.0
2018-Feb-10 16:00N 37°57' W 008°52'0 0.0
2018-Feb-10 15:30N 37°57' W 008°52'0 0.0
2018-Feb-10 15:00N 37°57' W 008°52'0 0.0
2018-Feb-10 14:30N 37°57' W 008°52'0 0.0
2018-Feb-10 13:57N 37°57' W 008°52'0 0.0
2018-Feb-10 13:30N 37°57' W 008°52'0 0.0
2018-Feb-10 12:57N 37°57' W 008°52'0 0.0
2018-Feb-10 12:30N 37°57' W 008°52'0 0.0
2018-Feb-10 12:00N 37°57' W 008°52'0 0.0
2018-Feb-10 11:30N 37°57' W 008°52'0 0.0
2018-Feb-10 11:00N 37°57' W 008°52'0 0.0
2018-Feb-10 10:30N 37°57' W 008°52'0 0.0
2018-Feb-10 10:00N 37°57' W 008°52'0 0.0
2018-Feb-10 09:30N 37°57' W 008°52'0 0.0
2018-Feb-10 09:00N 37°57' W 008°52'0 0.0
2018-Feb-10 08:30N 37°57' W 008°52'0 0.0
2018-Feb-10 08:00N 37°57' W 008°52'0 0.0
2018-Feb-10 07:30N 37°57' W 008°52'0 0.0
2018-Feb-10 07:00N 37°57' W 008°52'0 0.0
2018-Feb-10 06:30N 37°57' W 008°52'0 0.0
2018-Feb-10 06:01N 37°57' W 008°52'0 0.0
2018-Feb-10 05:31N 37°57' W 008°52'0 0.0
2018-Feb-10 05:01N 37°57' W 008°52'0 0.0
2018-Feb-10 04:31N 37°57' W 008°52'0 0.0
2018-Feb-10 04:01N 37°57' W 008°52'0 0.0
2018-Feb-10 03:31N 37°57' W 008°52'0 0.0
2018-Feb-10 03:01N 37°57' W 008°52'0 0.0
2018-Feb-10 02:28N 37°57' W 008°52'0 0.0
2018-Feb-10 02:01N 37°57' W 008°52'0 0.0
2018-Feb-10 01:28N 37°57' W 008°52'0 0.0
2018-Feb-10 00:58N 37°57' W 008°52'0 0.0
2018-Feb-10 00:28N 37°57' W 008°52'0 0.0
2018-Feb-09 23:58N 37°57' W 008°52'0 0.0
2018-Feb-09 23:28N 37°57' W 008°52'0 0.0
2018-Feb-09 22:58N 37°57' W 008°52'0 0.0
2018-Feb-09 22:46N 37°57' W 008°52'  

Dump ship's entire track history